createdAt,value
2022-10-30T00:00:31.646Z,17.27
2022-10-30T00:03:04.618Z,17.27
2022-10-30T00:05:41.180Z,17.27
2022-10-30T00:08:24.477Z,17.28
2022-10-30T00:21:35.472Z,17.23
2022-10-30T00:24:10.049Z,17.24
2022-10-30T00:26:43.519Z,17.23
2022-10-30T00:29:16.794Z,17.23
2022-10-30T00:31:43.357Z,17.22
2022-10-30T00:34:23.475Z,17.21
2022-10-30T00:47:42.451Z,17.23
2022-10-30T00:50:22.731Z,17.23
2022-10-30T00:53:09.453Z,17.21
2022-10-30T00:55:49.187Z,17.18
2022-10-30T00:58:40.487Z,17.18
2022-10-30T01:01:20.632Z,17.20
2022-10-30T01:04:06.536Z,17.20
2022-10-30T01:14:10.428Z,17.20
2022-10-30T01:17:18.183Z,17.20
2022-10-30T01:20:16.554Z,17.19
2022-10-30T01:23:11.477Z,17.20
2022-10-30T01:25:57.734Z,17.19
2022-10-30T01:29:00.445Z,17.20
2022-10-30T01:42:37.488Z,17.20
2022-10-30T01:45:19.758Z,17.20
2022-10-30T01:48:33.446Z,17.20
2022-10-30T01:51:19.369Z,17.19
2022-10-30T01:54:12.462Z,17.19
2022-10-30T02:07:33.449Z,17.18
2022-10-30T02:10:19.391Z,17.19
2022-10-30T02:12:59.468Z,17.18
2022-10-30T02:15:36.506Z,17.19
2022-10-30T02:18:17.717Z,17.17
2022-10-30T02:20:52.858Z,17.18
2022-10-30T02:23:27.457Z,17.18
2022-10-30T02:36:23.448Z,17.18
2022-10-30T02:38:57.068Z,17.17
2022-10-30T02:41:30.481Z,17.17
2022-10-30T02:44:04.753Z,17.17
2022-10-30T02:46:38.473Z,17.17
2022-10-30T02:49:12.768Z,17.17
2022-10-30T03:02:02.505Z,17.14
2022-10-30T03:04:42.450Z,17.15
2022-10-30T03:07:15.725Z,17.16
2022-10-30T03:09:42.294Z,17.16
2022-10-30T03:12:22.456Z,17.17
2022-10-30T03:14:55.541Z,17.18
2022-10-30T03:27:48.435Z,17.16
2022-10-30T03:30:28.441Z,17.16
2022-10-30T03:33:03.666Z,17.16
2022-10-30T03:35:36.520Z,17.16
2022-10-30T03:38:09.855Z,17.15
2022-10-30T03:40:43.456Z,17.14
2022-10-30T03:43:18.901Z,17.13
2022-10-30T03:56:09.432Z,17.13
2022-10-30T03:59:10.453Z,17.13
2022-10-30T04:01:53.371Z,17.13
2022-10-30T04:04:33.446Z,17.14
2022-10-30T04:07:06.603Z,17.14
2022-10-30T04:09:33.196Z,17.15
2022-10-30T04:22:30.411Z,17.16
2022-10-30T04:25:12.722Z,17.18
2022-10-30T04:27:49.636Z,17.19
2022-10-30T04:30:30.464Z,17.19
2022-10-30T04:33:06.860Z,17.20
2022-10-30T04:49:21.437Z,17.20
2022-10-30T04:51:54.640Z,17.20
2022-10-30T04:54:28.463Z,17.17
2022-10-30T04:57:02.732Z,17.17
2022-10-30T04:59:36.473Z,17.16
2022-10-30T05:02:10.292Z,17.16
2022-10-30T05:04:45.458Z,17.15
2022-10-30T05:14:45.421Z,17.16
2022-10-30T05:17:25.499Z,17.16
2022-10-30T05:20:00.624Z,17.16
2022-10-30T05:22:33.475Z,17.15
2022-10-30T05:25:07.951Z,17.17
2022-10-30T05:27:44.040Z,17.17
2022-10-30T05:41:32.470Z,17.16
2022-10-30T05:44:05.603Z,17.12
2022-10-30T05:46:39.438Z,17.13
2022-10-30T05:49:12.492Z,17.12
2022-10-30T05:51:52.473Z,17.11
2022-10-30T05:54:26.606Z,17.09
2022-10-30T06:08:14.404Z,17.08
2022-10-30T06:11:00.449Z,17.07
2022-10-30T06:13:40.135Z,17.07
2022-10-30T06:16:22.521Z,17.08
2022-10-30T06:19:17.637Z,17.06
2022-10-30T06:22:03.454Z,17.07
2022-10-30T06:24:48.500Z,17.05
2022-10-30T06:35:06.487Z,17.04
2022-10-30T06:37:45.512Z,17.04
2022-10-30T06:40:26.450Z,17.04
2022-10-30T06:43:17.465Z,17.04
2022-10-30T06:46:04.524Z,17.03
2022-10-30T06:48:41.057Z,17.04
2022-10-30T07:01:55.607Z,17.04
2022-10-30T07:04:50.464Z,17.05
2022-10-30T07:07:24.075Z,17.06
2022-10-30T07:09:57.469Z,17.06
2022-10-30T07:13:02.021Z,17.07
2022-10-30T07:29:35.693Z,17.13
2022-10-30T07:32:34.278Z,17.13
2022-10-30T07:35:21.460Z,17.14
2022-10-30T07:38:01.855Z,17.16
2022-10-30T07:40:49.480Z,17.15
2022-10-30T07:43:45.490Z,17.15
2022-10-30T07:56:59.414Z,17.19
2022-10-30T08:00:03.948Z,17.21
2022-10-30T08:02:41.499Z,17.24
2022-10-30T08:05:30.394Z,17.24
2022-10-30T08:08:19.552Z,17.29
2022-10-30T08:22:05.417Z,17.46
2022-10-30T08:24:47.445Z,17.49
2022-10-30T08:27:20.584Z,17.53
2022-10-30T08:29:47.162Z,17.54
2022-10-30T08:32:28.532Z,17.59
2022-10-30T08:35:20.498Z,17.64
2022-10-30T08:48:54.423Z,17.81
2022-10-30T08:51:39.430Z,17.84
2022-10-30T08:54:13.295Z,17.84
2022-10-30T08:56:46.441Z,17.87
2022-10-30T08:59:21.321Z,17.92
2022-10-30T09:01:56.597Z,17.94
2022-10-30T09:04:49.999Z,17.98
2022-10-30T09:15:28.429Z,18.15
2022-10-30T09:18:04.894Z,18.21
2022-10-30T09:23:20.412Z,18.28
2022-10-30T09:26:16.976Z,18.31
2022-10-30T09:29:00.249Z,18.34
2022-10-30T09:42:53.430Z,18.56
2022-10-30T09:46:05.445Z,18.64
2022-10-30T09:49:14.689Z,18.74
2022-10-30T09:52:14.473Z,18.85
2022-10-30T09:55:09.665Z,18.97
2022-10-30T09:58:03.468Z,19.10
2022-10-30T10:11:22.466Z,19.63
2022-10-30T10:14:03.710Z,19.74
2022-10-30T10:16:47.443Z,19.87
2022-10-30T10:19:28.178Z,19.99
2022-10-30T10:22:12.428Z,20.10
2022-10-30T10:24:45.807Z,20.22
2022-10-30T10:37:52.416Z,20.68
2022-10-30T10:40:56.441Z,20.80
2022-10-30T10:43:52.018Z,20.88
2022-10-30T10:46:51.423Z,20.97
2022-10-30T10:49:50.853Z,21.06
2022-10-30T11:02:53.417Z,21.41
2022-10-30T11:05:40.427Z,21.50
2022-10-30T11:08:28.057Z,21.57
2022-10-30T11:11:11.434Z,21.62
2022-10-30T11:13:44.579Z,21.68
2022-10-30T11:16:33.458Z,21.70
2022-10-30T11:19:09.051Z,21.71
2022-10-30T11:29:17.444Z,21.94
2022-10-30T11:32:01.359Z,22.01
2022-10-30T11:34:44.473Z,22.08
2022-10-30T11:37:31.019Z,22.13
2022-10-30T11:40:23.733Z,22.18
2022-10-30T11:43:00.812Z,22.22
2022-10-30T11:56:22.407Z,22.43
2022-10-30T11:59:07.435Z,22.46
2022-10-30T12:01:59.613Z,22.46
2022-10-30T12:04:42.441Z,22.48
2022-10-30T12:07:25.969Z,22.48
2022-10-30T12:10:06.470Z,22.48
2022-10-30T12:23:25.473Z,22.40
2022-10-30T12:26:02.078Z,22.36
2022-10-30T12:28:44.443Z,22.30
2022-10-30T12:31:23.044Z,22.21
2022-10-30T12:34:21.464Z,22.16
2022-10-30T12:37:05.529Z,22.12
2022-10-30T12:40:06.467Z,22.09
2022-10-30T12:49:57.456Z,22.00
2022-10-30T12:52:45.470Z,21.96
2022-10-30T12:55:27.089Z,21.96
2022-10-30T12:58:22.448Z,21.99
2022-10-30T13:01:02.395Z,22.01
2022-10-30T13:03:49.434Z,22.04
2022-10-30T13:16:45.439Z,22.06
2022-10-30T13:19:18.719Z,22.06
2022-10-30T13:22:03.465Z,22.08
2022-10-30T13:24:53.228Z,22.10
2022-10-30T13:27:45.437Z,22.14
2022-10-30T13:30:21.580Z,22.19
2022-10-30T13:43:28.408Z,22.70
2022-10-30T13:46:32.452Z,22.85
2022-10-30T13:49:36.295Z,22.82
2022-10-30T13:52:23.250Z,22.86
2022-10-30T13:55:04.296Z,22.86
2022-10-30T13:57:54.471Z,22.85
2022-10-30T14:11:07.448Z,22.82
2022-10-30T14:13:54.160Z,22.83
2022-10-30T14:16:50.444Z,22.83
2022-10-30T14:19:23.494Z,22.83
2022-10-30T14:22:02.456Z,22.86
2022-10-30T14:24:43.299Z,22.95
2022-10-30T14:38:03.425Z,23.80
2022-10-30T14:40:52.448Z,23.76
2022-10-30T14:43:42.695Z,23.75
2022-10-30T14:46:34.435Z,23.75
2022-10-30T14:49:36.325Z,23.75
2022-10-30T15:03:16.422Z,23.50
2022-10-30T15:06:02.546Z,23.32
2022-10-30T15:08:59.268Z,23.09
2022-10-30T15:12:13.459Z,22.86
2022-10-30T15:14:55.040Z,22.64
2022-10-30T15:17:40.465Z,22.47
2022-10-30T15:20:20.189Z,22.31
2022-10-30T15:30:10.542Z,21.86
2022-10-30T15:32:43.545Z,21.77
2022-10-30T15:35:24.447Z,21.68
2022-10-30T15:40:32.460Z,21.51
2022-10-30T15:43:12.517Z,21.42
2022-10-30T15:57:27.080Z,21.10
2022-10-30T16:00:03.501Z,21.02
2022-10-30T16:02:36.615Z,20.98
2022-10-30T16:05:27.488Z,20.91
2022-10-30T16:08:08.944Z,20.87
2022-10-30T16:24:38.470Z,20.60
2022-10-30T16:27:17.581Z,20.57
2022-10-30T16:30:01.466Z,20.53
2022-10-30T16:32:35.189Z,20.49
2022-10-30T16:35:12.453Z,20.44
2022-10-30T16:37:46.281Z,20.41
2022-10-30T16:40:26.477Z,20.37
2022-10-30T16:50:26.418Z,20.26
2022-10-30T16:53:11.449Z,20.20
2022-10-30T16:55:46.970Z,20.18
2022-10-30T16:58:24.468Z,20.15
2022-10-30T17:01:05.474Z,20.13
2022-10-30T17:03:48.467Z,20.12
2022-10-30T17:17:35.478Z,19.99
2022-10-30T17:20:28.151Z,19.95
2022-10-30T17:23:20.439Z,19.92
2022-10-30T17:25:55.005Z,19.91
2022-10-30T17:28:33.466Z,19.90
2022-10-30T17:45:11.406Z,19.76
2022-10-30T17:47:51.442Z,19.74
2022-10-30T17:50:24.500Z,19.72
2022-10-30T17:52:51.056Z,19.71
2022-10-30T17:55:39.460Z,19.69
2022-10-30T17:58:12.873Z,19.67
2022-10-30T18:11:02.404Z,19.58
2022-10-30T18:13:42.463Z,19.57
2022-10-30T18:16:17.821Z,19.54
2022-10-30T18:18:53.471Z,19.52
2022-10-30T18:21:26.560Z,19.52
2022-10-30T18:24:00.427Z,19.51
2022-10-30T18:37:26.461Z,19.43
2022-10-30T18:39:59.483Z,19.41
2022-10-30T18:42:26.080Z,19.40
2022-10-30T18:45:06.477Z,19.38
2022-10-30T18:47:39.636Z,19.36
2022-10-30T18:50:14.437Z,19.36
2022-10-30T18:52:49.733Z,19.30
2022-10-30T18:55:28.432Z,19.30
2022-10-30T19:05:36.417Z,19.28
2022-10-30T19:08:18.443Z,19.25
2022-10-30T19:10:54.524Z,19.24
2022-10-30T19:13:28.497Z,19.21
2022-10-30T19:16:01.694Z,19.22
2022-10-30T19:18:35.501Z,19.21
2022-10-30T19:31:47.449Z,19.16
2022-10-30T19:34:20.504Z,19.16
2022-10-30T19:36:47.056Z,19.16
2022-10-30T19:39:27.504Z,19.14
2022-10-30T19:42:00.815Z,19.14
2022-10-30T19:44:27.380Z,19.10
2022-10-30T19:57:44.427Z,19.06
2022-10-30T20:00:28.437Z,19.03
2022-10-30T20:03:04.103Z,19.04
2022-10-30T20:05:43.169Z,19.04
2022-10-30T20:08:19.643Z,19.02
2022-10-30T20:10:57.461Z,19.01
2022-10-30T20:13:32.627Z,19.01
2022-10-30T20:26:32.409Z,18.97
2022-10-30T20:29:15.496Z,18.96
2022-10-30T20:31:48.548Z,18.95
2022-10-30T20:34:15.159Z,18.93
2022-10-30T20:36:55.474Z,18.92
2022-10-30T20:39:28.509Z,18.91
2022-10-30T20:52:18.409Z,18.75
2022-10-30T20:54:58.509Z,18.72
2022-10-30T20:57:31.568Z,18.72
2022-10-30T20:59:58.187Z,18.71
2022-10-30T21:02:38.555Z,18.68
2022-10-30T21:05:23.622Z,18.66
2022-10-30T21:18:35.413Z,18.59
2022-10-30T21:21:15.496Z,18.57
2022-10-30T21:23:52.964Z,18.55
2022-10-30T21:26:33.427Z,18.57
2022-10-30T21:29:06.546Z,18.57
2022-10-30T21:31:33.479Z,18.58
2022-10-30T21:34:15.468Z,18.58
2022-10-30T21:44:42.408Z,18.58
2022-10-30T21:47:22.453Z,18.57
2022-10-30T21:49:57.556Z,18.57
2022-10-30T21:52:30.472Z,18.55
2022-10-30T21:55:04.714Z,18.56
2022-10-30T21:57:37.441Z,18.56
2022-10-30T22:00:13.195Z,18.56
2022-10-30T22:13:02.500Z,18.51
2022-10-30T22:15:42.437Z,18.50
2022-10-30T22:18:15.524Z,18.48
2022-10-30T22:20:42.064Z,18.48
2022-10-30T22:23:27.455Z,18.48
2022-10-30T22:40:04.417Z,18.43
2022-10-30T22:42:44.452Z,18.41
2022-10-30T22:45:17.524Z,18.40
2022-10-30T22:47:56.641Z,18.40
2022-10-30T22:50:31.016Z,18.37
2022-10-30T22:53:04.455Z,18.35
2022-10-30T23:05:31.456Z,18.34
2022-10-30T23:08:05.182Z,18.33
2022-10-30T23:10:38.979Z,18.32
2022-10-30T23:13:14.685Z,18.28
2022-10-30T23:15:47.473Z,18.26
2022-10-30T23:18:20.485Z,18.25
2022-10-30T23:31:46.428Z,18.21
2022-10-30T23:34:26.449Z,18.22
2022-10-30T23:37:01.823Z,18.23
2022-10-30T23:39:35.450Z,18.21
2022-10-30T23:42:08.701Z,18.19
2022-10-30T23:44:35.289Z,18.18
